Terminal Aerodrome Forecast
Issued by NWS

Home | Current Version | Previous Version | Text Only | Print | Product List | Glossary On
Versions: 1 2 3 4 5 6 7 8 9 10 11 12 13 14 15 16
000
FTUS45 KABQ 250527
TAFAEG
TAF
KAEG 250527Z 2506/2606 25008KT P6SM VCSH SCT035 BKN080
     FM250900 25005KT P6SM SCT040 BKN080
     FM252000 28012G20KT P6SM VCSH BKN060
     FM260200 29008KT P6SM SCT050 BKN100=

USA.gov is the U.S. government's official web portal to all federal, state and local government web resources and services.